createdAt,value
2022-08-07T00:00:25.372Z,45.16
2022-08-07T00:02:53.807Z,44.89
2022-08-07T00:05:20.823Z,45.47
2022-08-07T00:07:50.709Z,45.03
2022-08-07T00:10:29.666Z,45.97
2022-08-07T00:13:02.130Z,45.66
2022-08-07T00:15:46.405Z,45.84
2022-08-07T00:18:24.340Z,45.36
2022-08-07T00:20:52.777Z,45.39
2022-08-07T00:23:21.324Z,45.20
2022-08-07T00:25:52.061Z,45.09
2022-08-07T00:28:33.405Z,45.57
2022-08-07T00:31:04.318Z,45.64
2022-08-07T00:33:32.843Z,45.74
2022-08-07T00:36:00.235Z,45.89
2022-08-07T00:38:31.250Z,45.97
2022-08-07T00:40:59.353Z,46.15
2022-08-07T00:44:01.374Z,46.99
2022-08-07T00:46:12.703Z,45.92
2022-08-07T00:48:42.078Z,46.28
2022-08-07T00:51:09.522Z,46.70
2022-08-07T00:53:38.473Z,46.16
2022-08-07T00:56:17.135Z,48.14
2022-08-07T00:58:46.907Z,49.30
2022-08-07T01:01:13.951Z,50.03
2022-08-07T01:03:56.412Z,50.35
2022-08-07T01:06:28.611Z,51.93
2022-08-07T01:08:56.347Z,50.76
2022-08-07T01:12:09.585Z,51.34
2022-08-07T01:14:12.373Z,51.07
2022-08-07T01:16:47.235Z,51.34
2022-08-07T01:19:18.852Z,52.22
2022-08-07T01:21:47.392Z,51.26
2022-08-07T01:24:18.760Z,50.61
2022-08-07T01:26:51.774Z,51.77
2022-08-07T01:29:19.737Z,52.31
2022-08-07T01:31:48.186Z,51.82
2022-08-07T01:34:15.646Z,52.35
2022-08-07T01:36:44.138Z,52.25
2022-08-07T01:39:11.073Z,53.29
2022-08-07T01:41:40.921Z,52.52
2022-08-07T01:44:26.423Z,52.46
2022-08-07T01:46:54.542Z,53.25
2022-08-07T01:49:24.306Z,53.74
2022-08-07T01:52:03.833Z,53.80
2022-08-07T01:54:37.604Z,53.66
2022-08-07T01:57:34.064Z,53.46
2022-08-07T02:00:13.045Z,54.38
2022-08-07T02:03:12.441Z,54.32
2022-08-07T02:06:00.792Z,53.21
2022-08-07T02:08:29.352Z,53.67
2022-08-07T02:10:59.398Z,53.89
2022-08-07T02:13:57.664Z,54.56
2022-08-07T02:16:18.186Z,54.97
2022-08-07T02:18:49.346Z,55.11
2022-08-07T02:21:19.755Z,55.16
2022-08-07T02:23:47.726Z,55.39
2022-08-07T02:26:32.809Z,55.65
2022-08-07T02:29:03.008Z,54.96
2022-08-07T02:31:32.598Z,54.71
2022-08-07T02:34:03.462Z,55.24
2022-08-07T02:36:33.856Z,56.32
2022-08-07T02:39:16.563Z,55.90
2022-08-07T02:41:54.606Z,55.31
2022-08-07T02:44:27.719Z,56.88
2022-08-07T02:47:03.380Z,57.87
2022-08-07T02:49:56.270Z,57.61
2022-08-07T02:52:30.963Z,56.95
2022-08-07T02:55:03.846Z,57.01
2022-08-07T02:57:34.973Z,57.84
2022-08-07T03:00:05.027Z,58.09
2022-08-07T03:02:37.653Z,57.63
2022-08-07T03:05:20.493Z,58.32
2022-08-07T03:08:06.903Z,58.33
2022-08-07T03:10:35.972Z,57.54
2022-08-07T03:13:14.618Z,58.64
2022-08-07T03:15:47.717Z,58.17
2022-08-07T03:18:25.857Z,57.76
2022-08-07T03:21:03.296Z,58.11
2022-08-07T03:23:33.950Z,58.83
2022-08-07T03:26:21.268Z,60.63
2022-08-07T03:28:51.626Z,59.34
2022-08-07T03:31:24.703Z,60.01
2022-08-07T03:34:03.150Z,61.37
2022-08-07T03:36:32.459Z,60.98
2022-08-07T03:39:05.536Z,61.10
2022-08-07T03:41:42.432Z,59.50
2022-08-07T03:44:16.943Z,60.16
2022-08-07T03:47:10.765Z,60.91
2022-08-07T03:49:35.767Z,59.93
2022-08-07T03:52:02.971Z,60.71
2022-08-07T03:54:35.253Z,60.94
2022-08-07T03:58:34.396Z,61.65
2022-08-07T04:00:04.390Z,60.79
2022-08-07T04:02:31.163Z,61.21
2022-08-07T04:04:58.349Z,61.22
2022-08-07T04:07:25.639Z,61.86
2022-08-07T04:10:03.672Z,62.51
2022-08-07T04:12:32.979Z,62.62
2022-08-07T04:15:02.333Z,62.89
2022-08-07T04:18:31.293Z,63.40
2022-08-07T04:20:19.521Z,63.67
2022-08-07T04:22:53.363Z,63.42
2022-08-07T04:25:22.589Z,63.70
2022-08-07T04:27:59.154Z,62.44
2022-08-07T04:30:43.878Z,60.92
2022-08-07T04:33:15.706Z,58.09
2022-08-07T04:35:50.612Z,56.87
2022-08-07T04:38:18.737Z,53.86
2022-08-07T04:40:52.591Z,52.86
2022-08-07T04:44:13.147Z,51.03
2022-08-07T04:47:07.588Z,49.65
2022-08-07T04:49:57.714Z,47.92
2022-08-07T04:53:07.153Z,46.70
2022-08-07T04:58:14.632Z,45.42
2022-08-07T05:00:08.965Z,44.87
2022-08-07T05:02:04.584Z,43.74
2022-08-07T05:04:50.064Z,44.01
2022-08-07T05:07:28.982Z,43.22
2022-08-07T05:10:11.086Z,44.42
2022-08-07T05:12:51.476Z,42.81
2022-08-07T05:15:26.570Z,41.91
2022-08-07T05:18:00.858Z,42.82
2022-08-07T05:20:34.834Z,40.98
2022-08-07T05:23:15.565Z,41.48
2022-08-07T05:26:13.471Z,41.02
2022-08-07T05:28:33.367Z,40.11
2022-08-07T05:31:01.420Z,39.17
2022-08-07T05:33:31.520Z,37.74
2022-08-07T05:36:04.309Z,38.06
2022-08-07T05:39:00.803Z,37.39
2022-08-07T05:41:21.695Z,36.84
2022-08-07T05:44:08.261Z,35.75
2022-08-07T05:46:38.421Z,35.38
2022-08-07T05:49:12.305Z,34.17
2022-08-07T05:51:40.720Z,34.45
2022-08-07T05:54:19.600Z,35.32
2022-08-07T05:56:57.253Z,34.64
2022-08-07T05:59:27.423Z,33.56
2022-08-07T06:01:55.922Z,29.95
2022-08-07T06:04:30.328Z,30.44
2022-08-07T06:07:03.467Z,29.42
2022-08-07T06:10:04.105Z,28.94
2022-08-07T06:12:17.629Z,27.74
2022-08-07T06:14:49.535Z,27.96
2022-08-07T06:17:19.113Z,27.62
2022-08-07T06:20:03.322Z,27.95
2022-08-07T06:22:38.704Z,27.99
2022-08-07T06:25:06.158Z,28.96
2022-08-07T06:27:59.579Z,30.27
2022-08-07T06:30:35.191Z,27.84
2022-08-07T06:33:05.355Z,27.95
2022-08-07T06:35:39.095Z,27.34
2022-08-07T06:38:20.172Z,28.45
2022-08-07T06:40:50.193Z,27.98
2022-08-07T06:43:21.572Z,27.32
2022-08-07T06:45:49.740Z,27.13
2022-08-07T06:48:16.263Z,27.96
2022-08-07T06:50:52.785Z,27.09
2022-08-07T06:55:29.609Z,26.81
2022-08-07T06:56:15.526Z,29.46
2022-08-07T07:00:12.531Z,27.34
2022-08-07T07:01:43.988Z,26.90
2022-08-07T07:04:28.366Z,28.28
2022-08-07T07:07:01.908Z,27.73
2022-08-07T07:09:38.203Z,28.92
2022-08-07T07:12:09.682Z,27.92
2022-08-07T07:15:03.606Z,28.52
2022-08-07T07:17:45.161Z,27.17
2022-08-07T07:20:17.903Z,27.07
2022-08-07T07:24:09.835Z,26.63
2022-08-07T07:26:35.897Z,28.82
2022-08-07T07:28:42.229Z,28.22
2022-08-07T07:31:39.782Z,27.83
2022-08-07T07:34:15.968Z,26.54
2022-08-07T07:36:48.015Z,27.30
2022-08-07T07:39:21.121Z,27.13
2022-08-07T07:42:08.770Z,26.96
2022-08-07T07:44:41.835Z,26.57
2022-08-07T07:47:22.766Z,26.17
2022-08-07T07:50:36.681Z,25.19
2022-08-07T07:52:47.168Z,26.10
2022-08-07T07:55:17.813Z,26.07
2022-08-07T07:58:03.975Z,25.27
2022-08-07T08:00:34.465Z,25.26
2022-08-07T08:03:16.762Z,25.23
2022-08-07T08:05:54.409Z,25.08
2022-08-07T08:08:34.446Z,25.69
2022-08-07T08:11:09.003Z,25.46
2022-08-07T08:13:54.028Z,26.32
2022-08-07T08:16:50.202Z,25.42
2022-08-07T08:20:17.276Z,25.33
2022-08-07T08:22:32.884Z,25.35
2022-08-07T08:25:27.050Z,24.57
2022-08-07T08:28:12.537Z,25.55
2022-08-07T08:30:51.518Z,25.62
2022-08-07T08:33:28.954Z,24.43
2022-08-07T08:36:01.673Z,23.74
2022-08-07T08:38:40.607Z,25.05
2022-08-07T08:41:23.048Z,24.47
2022-08-07T08:44:08.194Z,25.03
2022-08-07T08:47:02.950Z,25.10
2022-08-07T08:49:46.273Z,25.64
2022-08-07T08:52:40.964Z,24.46
2022-08-07T08:55:54.867Z,23.94
2022-08-07T08:58:28.541Z,24.18
2022-08-07T09:01:14.725Z,24.51
2022-08-07T09:03:52.987Z,23.63
2022-08-07T09:06:33.904Z,24.88
2022-08-07T09:09:30.122Z,25.30
2022-08-07T09:12:31.244Z,24.85
2022-08-07T09:16:23.130Z,23.74
2022-08-07T09:18:41.603Z,24.81
2022-08-07T09:21:58.159Z,25.44
2022-08-07T09:24:58.949Z,24.42
2022-08-07T09:28:00.606Z,24.54
2022-08-07T09:30:41.505Z,24.69
2022-08-07T09:33:52.814Z,23.76
2022-08-07T09:36:42.850Z,25.32
2022-08-07T09:39:55.054Z,25.04
2022-08-07T09:42:29.287Z,25.33
2022-08-07T09:47:49.846Z,25.36
2022-08-07T09:48:19.079Z,24.95
2022-08-07T09:52:16.113Z,25.94
2022-08-07T09:54:17.720Z,25.20
2022-08-07T09:57:07.078Z,26.81
2022-08-07T10:00:01.908Z,26.64
2022-08-07T10:02:54.971Z,26.12
2022-08-07T10:05:58.939Z,26.20
2022-08-07T10:08:39.493Z,26.05
2022-08-07T10:12:02.036Z,26.30
2022-08-07T10:14:55.277Z,27.37
2022-08-07T10:18:01.850Z,25.27
2022-08-07T10:20:45.382Z,25.85
2022-08-07T10:24:04.972Z,24.50
2022-08-07T10:26:53.803Z,25.66
2022-08-07T10:29:23.557Z,26.15
2022-08-07T10:32:50.953Z,26.05
2022-08-07T10:35:55.957Z,25.08
2022-08-07T10:39:17.547Z,25.38
2022-08-07T10:42:01.685Z,24.75
2022-08-07T10:44:55.782Z,24.15
2022-08-07T10:47:53.506Z,25.91
2022-08-07T10:50:54.368Z,24.99
2022-08-07T10:53:50.213Z,25.14
2022-08-07T10:56:49.324Z,24.76
2022-08-07T10:59:44.111Z,24.83
2022-08-07T11:02:34.275Z,25.80
2022-08-07T11:05:24.172Z,26.03
2022-08-07T11:08:05.870Z,25.39
2022-08-07T11:11:10.370Z,24.57
2022-08-07T11:14:57.260Z,25.37
2022-08-07T11:16:51.296Z,25.39
2022-08-07T11:19:50.793Z,24.41
2022-08-07T11:22:46.134Z,24.81
2022-08-07T11:25:42.459Z,23.78
2022-08-07T11:28:21.428Z,23.27
2022-08-07T11:30:56.889Z,24.52
2022-08-07T11:33:58.648Z,24.21
2022-08-07T11:36:56.341Z,24.26
2022-08-07T11:40:00.006Z,23.86
2022-08-07T11:42:59.783Z,23.04
2022-08-07T11:46:09.749Z,24.49
2022-08-07T11:49:50.195Z,24.97
2022-08-07T11:52:11.473Z,23.99
2022-08-07T11:54:46.386Z,25.06
2022-08-07T11:57:59.599Z,24.38
2022-08-07T12:00:30.268Z,24.18
2022-08-07T12:03:44.934Z,25.04
2022-08-07T12:06:40.361Z,24.82
2022-08-07T12:09:49.764Z,24.73
2022-08-07T12:12:37.901Z,24.47
2022-08-07T12:15:46.158Z,24.68
2022-08-07T12:18:36.757Z,24.39
2022-08-07T12:22:35.986Z,25.67
2022-08-07T12:25:02.233Z,25.04
2022-08-07T12:28:09.925Z,24.77
2022-08-07T12:30:33.237Z,23.57
2022-08-07T12:33:23.261Z,23.17
2022-08-07T12:35:57.955Z,23.88
2022-08-07T12:38:38.466Z,24.36
2022-08-07T12:41:11.566Z,23.95
2022-08-07T12:44:03.674Z,24.60
2022-08-07T12:47:06.388Z,24.59
2022-08-07T12:49:54.377Z,24.95
2022-08-07T12:53:05.207Z,24.58
2022-08-07T12:56:02.614Z,24.62
2022-08-07T12:59:20.763Z,24.92
2022-08-07T13:02:09.648Z,24.79
2022-08-07T13:05:02.609Z,24.79
2022-08-07T13:08:14.391Z,24.67
2022-08-07T13:11:08.523Z,24.76
2022-08-07T13:13:50.219Z,24.53
2022-08-07T13:17:04.051Z,24.68
2022-08-07T13:19:50.912Z,24.83
2022-08-07T13:22:31.386Z,24.32
2022-08-07T13:25:10.640Z,24.97
2022-08-07T13:28:13.765Z,26.45
2022-08-07T13:31:02.187Z,25.32
2022-08-07T13:34:33.767Z,24.80
2022-08-07T13:37:20.089Z,24.34
2022-08-07T13:40:35.412Z,23.73
2022-08-07T13:42:56.418Z,23.68
2022-08-07T13:46:11.338Z,23.97
2022-08-07T13:48:20.825Z,23.72
2022-08-07T13:51:01.896Z,23.44
2022-08-07T13:54:00.977Z,23.49
2022-08-07T13:56:35.831Z,23.99
2022-08-07T13:59:12.798Z,23.54
2022-08-07T14:02:03.945Z,23.78
2022-08-07T14:04:35.603Z,23.28
2022-08-07T14:07:09.493Z,23.69
2022-08-07T14:10:02.035Z,23.62
2022-08-07T14:12:55.614Z,24.27
2022-08-07T14:15:36.107Z,24.46
2022-08-07T14:18:15.628Z,23.95
2022-08-07T14:22:00.495Z,23.82
2022-08-07T14:24:04.444Z,24.37
2022-08-07T14:26:51.246Z,24.01
2022-08-07T14:30:07.112Z,24.71
2022-08-07T14:32:09.198Z,24.55
2022-08-07T14:34:46.395Z,25.00
2022-08-07T14:37:16.820Z,25.06
2022-08-07T14:40:15.465Z,25.55
2022-08-07T14:42:35.608Z,25.04
2022-08-07T14:45:25.460Z,24.56
2022-08-07T14:48:19.800Z,24.28
2022-08-07T14:50:53.294Z,24.05
2022-08-07T14:56:13.052Z,26.14
2022-08-07T14:58:45.236Z,25.26
2022-08-07T15:01:21.957Z,25.26
2022-08-07T15:03:51.857Z,25.02
2022-08-07T15:06:25.523Z,25.28
2022-08-07T15:08:55.695Z,25.28
2022-08-07T15:11:52.843Z,24.68
2022-08-07T15:14:20.797Z,25.09
2022-08-07T15:17:00.567Z,24.71
2022-08-07T15:20:30.268Z,24.85
2022-08-07T15:22:29.479Z,25.35
2022-08-07T15:25:18.512Z,25.23
2022-08-07T15:28:14.127Z,25.03
2022-08-07T15:30:36.626Z,24.98
2022-08-07T15:33:33.881Z,25.37
2022-08-07T15:38:59.596Z,25.48
2022-08-07T15:42:44.858Z,25.33
2022-08-07T15:44:23.957Z,25.17
2022-08-07T15:47:03.667Z,25.06
2022-08-07T15:50:04.775Z,25.13
2022-08-07T15:52:31.337Z,25.28
2022-08-07T15:55:11.639Z,25.70
2022-08-07T15:57:48.639Z,25.47
2022-08-07T16:00:31.825Z,25.54
2022-08-07T16:03:46.306Z,24.63
2022-08-07T16:06:20.384Z,25.16
2022-08-07T16:08:47.871Z,25.71
2022-08-07T16:11:52.375Z,25.97
2022-08-07T16:14:53.336Z,25.95
2022-08-07T16:18:02.994Z,25.48
2022-08-07T16:20:33.346Z,25.82
2022-08-07T16:23:55.176Z,26.06
2022-08-07T16:26:30.786Z,25.62
2022-08-07T16:30:07.090Z,25.72
2022-08-07T16:32:00.856Z,26.99
2022-08-07T16:34:55.307Z,25.65
2022-08-07T16:38:06.695Z,26.04
2022-08-07T16:41:10.922Z,25.60
2022-08-07T16:44:03.860Z,26.06
2022-08-07T16:47:14.411Z,25.67
2022-08-07T16:50:26.605Z,26.21
2022-08-07T16:54:01.108Z,26.15
2022-08-07T16:56:42.642Z,25.44
2022-08-07T16:59:58.187Z,25.56
2022-08-07T17:03:06.192Z,26.12
2022-08-07T17:06:02.129Z,25.65
2022-08-07T17:09:09.301Z,26.06
2022-08-07T17:12:35.662Z,25.50
2022-08-07T17:15:23.087Z,26.44
2022-08-07T17:18:25.971Z,25.78
2022-08-07T17:20:54.673Z,26.12
2022-08-07T17:23:58.972Z,26.11
2022-08-07T17:26:56.351Z,26.21
2022-08-07T17:30:15.474Z,25.89
2022-08-07T17:32:52.758Z,26.24
2022-08-07T17:35:50.031Z,25.98
2022-08-07T17:38:33.230Z,25.93
2022-08-07T17:42:00.923Z,26.02
2022-08-07T17:44:06.500Z,26.18
2022-08-07T17:46:56.802Z,26.38
2022-08-07T17:49:45.259Z,26.37
2022-08-07T17:52:27.575Z,26.96
2022-08-07T17:56:00.679Z,27.10
2022-08-07T17:58:58.254Z,27.55
2022-08-07T18:01:36.759Z,27.69
2022-08-07T18:04:31.102Z,28.10
2022-08-07T18:07:20.565Z,28.35
2022-08-07T18:10:07.377Z,28.93
2022-08-07T18:13:09.669Z,29.49
2022-08-07T18:16:01.970Z,29.55
2022-08-07T18:21:12.395Z,30.87
2022-08-07T18:21:59.968Z,30.63
2022-08-07T18:24:51.961Z,31.05
2022-08-07T18:27:39.997Z,32.12
2022-08-07T18:30:31.719Z,32.57
2022-08-07T18:33:16.197Z,32.74
2022-08-07T18:36:32.727Z,33.42
2022-08-07T18:40:06.755Z,33.33
2022-08-07T18:42:14.220Z,33.65
2022-08-07T18:45:39.893Z,33.86
2022-08-07T18:50:06.116Z,34.86
2022-08-07T18:52:26.020Z,35.17
2022-08-07T18:54:27.713Z,35.02
2022-08-07T18:57:30.353Z,35.13
2022-08-07T19:00:32.633Z,36.27
2022-08-07T19:03:35.368Z,36.54
2022-08-07T19:06:16.512Z,37.00
2022-08-07T19:09:09.458Z,37.49
2022-08-07T19:12:20.716Z,37.10
2022-08-07T19:14:56.039Z,38.39
2022-08-07T19:18:00.990Z,38.22
2022-08-07T19:21:09.350Z,39.53
2022-08-07T19:26:22.608Z,40.30
2022-08-07T19:31:05.414Z,39.74
2022-08-07T19:32:11.553Z,39.81
2022-08-07T19:34:40.406Z,41.34
2022-08-07T19:37:17.373Z,41.64
2022-08-07T19:39:56.621Z,41.54
2022-08-07T19:42:31.091Z,42.08
2022-08-07T19:45:08.313Z,41.96
2022-08-07T19:47:38.635Z,41.29
2022-08-07T19:50:43.149Z,40.77
2022-08-07T19:54:32.021Z,40.07
2022-08-07T19:57:52.231Z,40.40
2022-08-07T20:02:01.902Z,39.42
2022-08-07T20:04:37.519Z,39.40
2022-08-07T20:07:08.857Z,39.46
2022-08-07T20:10:33.763Z,38.98
2022-08-07T20:12:44.247Z,39.36
2022-08-07T20:15:21.997Z,39.70
2022-08-07T20:18:01.620Z,39.64
2022-08-07T20:20:31.464Z,39.62
2022-08-07T20:23:02.076Z,40.64
2022-08-07T20:25:50.765Z,40.25
2022-08-07T20:28:19.547Z,40.50
2022-08-07T20:30:47.417Z,41.00
2022-08-07T20:33:24.253Z,40.77
2022-08-07T20:36:07.922Z,40.72
2022-08-07T20:38:53.428Z,41.16
2022-08-07T20:41:28.186Z,41.23
2022-08-07T20:44:02.647Z,41.04
2022-08-07T20:46:42.857Z,41.17
2022-08-07T20:49:59.192Z,41.22
2022-08-07T20:51:59.029Z,41.50
2022-08-07T20:54:30.351Z,41.04
2022-08-07T20:57:04.461Z,41.29
2022-08-07T21:00:07.835Z,41.13
2022-08-07T21:02:55.244Z,41.82
2022-08-07T21:05:50.993Z,41.62
2022-08-07T21:08:36.757Z,42.43
2022-08-07T21:11:10.804Z,42.62
2022-08-07T21:14:16.250Z,42.58
2022-08-07T21:16:56.438Z,43.96
2022-08-07T21:19:51.719Z,44.79
2022-08-07T21:22:25.604Z,44.98
2022-08-07T21:25:20.236Z,46.07
2022-08-07T21:28:05.924Z,45.78
2022-08-07T21:30:43.371Z,46.93
2022-08-07T21:33:38.292Z,46.59
2022-08-07T21:36:32.615Z,47.96
2022-08-07T21:39:56.404Z,48.16
2022-08-07T21:42:42.802Z,49.06
2022-08-07T21:46:07.959Z,49.03
2022-08-07T21:48:28.768Z,49.28
2022-08-07T21:51:25.039Z,49.72
2022-08-07T21:53:55.023Z,49.65
2022-08-07T21:56:39.634Z,50.03
2022-08-07T21:59:21.417Z,49.29
2022-08-07T22:02:11.411Z,50.39
2022-08-07T22:04:53.850Z,49.83
2022-08-07T22:07:31.789Z,50.53
2022-08-07T22:10:22.235Z,50.72
2022-08-07T22:16:39.130Z,51.52
2022-08-07T22:19:13.116Z,51.89
2022-08-07T22:22:02.042Z,51.96
2022-08-07T22:24:55.285Z,52.54
2022-08-07T22:28:03.153Z,53.54
2022-08-07T22:30:27.263Z,53.16
2022-08-07T22:33:53.105Z,52.68
2022-08-07T22:36:17.986Z,53.09
2022-08-07T22:38:54.828Z,53.04
2022-08-07T22:42:02.512Z,52.78
2022-08-07T22:44:59.103Z,52.98
2022-08-07T22:47:39.438Z,53.42
2022-08-07T22:50:34.071Z,53.77
2022-08-07T22:53:15.214Z,53.10
2022-08-07T22:55:58.554Z,52.70
2022-08-07T22:58:48.414Z,52.70
2022-08-07T23:01:49.911Z,52.02
2022-08-07T23:04:56.830Z,52.76
2022-08-07T23:07:47.128Z,53.13
2022-08-07T23:10:41.938Z,53.11
2022-08-07T23:13:15.212Z,53.91
2022-08-07T23:16:06.386Z,53.70
2022-08-07T23:19:47.742Z,54.71
2022-08-07T23:25:45.893Z,54.93
2022-08-07T23:28:44.359Z,55.22
2022-08-07T23:34:23.187Z,55.15
2022-08-07T23:35:01.102Z,55.75
2022-08-07T23:38:01.256Z,56.41
2022-08-07T23:40:50.979Z,55.45
2022-08-07T23:43:42.455Z,54.70
2022-08-07T23:46:46.568Z,54.97
2022-08-07T23:49:42.068Z,55.03
2022-08-07T23:53:01.039Z,55.32
2022-08-07T23:55:51.879Z,55.37
2022-08-07T23:58:38.190Z,54.86
